createdAt,value
2023-03-25T00:01:34.927Z,99224.12
2023-03-25T00:04:04.325Z,99223.73
2023-03-25T00:06:34.484Z,99219.52
2023-03-25T00:09:03.864Z,99216.96
2023-03-25T00:11:31.557Z,99215.67
2023-03-25T00:14:00.192Z,99225.20
2023-03-25T00:16:28.099Z,99230.23
2023-03-25T00:18:55.858Z,99240.64
2023-03-25T00:21:23.638Z,99227.94
2023-03-25T00:23:51.527Z,99211.55
2023-03-25T00:26:19.399Z,99219.77
2023-03-25T00:28:47.096Z,99224.36
2023-03-25T00:31:15.632Z,99224.02
2023-03-25T00:33:43.765Z,99219.80
2023-03-25T00:36:14.614Z,99221.02
2023-03-25T00:38:43.738Z,99216.19
2023-03-25T00:41:25.363Z,99219.89
2023-03-25T00:43:55.552Z,99222.52
2023-03-25T00:46:26.787Z,99222.23
2023-03-25T00:48:55.727Z,99231.49
2023-03-25T00:51:25.798Z,99225.50
2023-03-25T00:53:56.096Z,99222.81
2023-03-25T00:56:24.481Z,99227.67
2023-03-25T00:58:52.459Z,99228.20
2023-03-25T01:01:27.074Z,99231.09
2023-03-25T01:04:00.330Z,99227.87
2023-03-25T01:06:33.431Z,99222.98
2023-03-25T01:09:03.607Z,99221.11
2023-03-25T01:11:37.717Z,99222.66
2023-03-25T01:14:13.160Z,99222.63
2023-03-25T01:16:41.216Z,99219.30
2023-03-25T01:19:10.233Z,99226.91
2023-03-25T01:21:38.062Z,99228.74
2023-03-25T01:27:42.049Z,99216.87
2023-03-25T01:30:11.112Z,99210.01
2023-03-25T01:32:38.853Z,99209.73
2023-03-25T01:35:07.698Z,99213.60
2023-03-25T01:37:36.659Z,99219.55
2023-03-25T01:40:08.472Z,99221.83
2023-03-25T01:42:36.413Z,99220.57
2023-03-25T01:45:13.849Z,99215.39
2023-03-25T01:47:43.455Z,99214.91
2023-03-25T01:50:15.266Z,99216.58
2023-03-25T01:52:47.161Z,99214.41
2023-03-25T01:55:18.088Z,99218.79
2023-03-25T01:57:48.377Z,99218.62
2023-03-25T02:00:16.715Z,99221.67
2023-03-25T02:02:45.776Z,99222.44
2023-03-25T02:05:43.475Z,99225.20
2023-03-25T02:08:11.233Z,99224.52
2023-03-25T02:10:39.224Z,99223.27
2023-03-25T02:13:07.717Z,99218.25
2023-03-25T02:15:48.026Z,99214.66
2023-03-25T02:18:30.168Z,99208.44
2023-03-25T02:21:46.113Z,99206.88
2023-03-25T02:24:19.709Z,99206.98
2023-03-25T02:26:56.019Z,99200.55
2023-03-25T02:29:54.173Z,99199.30
2023-03-25T02:32:40.768Z,99198.15
2023-03-25T02:35:18.031Z,99206.13
2023-03-25T02:38:27.946Z,99212.10
2023-03-25T02:41:05.124Z,99225.02
2023-03-25T02:43:43.971Z,99221.73
2023-03-25T02:46:18.224Z,99217.77
2023-03-25T02:49:15.352Z,99213.98
2023-03-25T02:52:08.658Z,99207.48
2023-03-25T02:54:39.377Z,99206.26
2023-03-25T02:57:10.887Z,99209.19
2023-03-25T02:59:39.082Z,99213.95
2023-03-25T03:02:09.574Z,99213.69
2023-03-25T03:04:47.900Z,99211.48
2023-03-25T03:07:40.121Z,99212.73
2023-03-25T03:10:29.681Z,99215.49
2023-03-25T03:13:12.194Z,99215.57
2023-03-25T03:15:49.116Z,99218.15
2023-03-25T03:18:20.145Z,99220.76
2023-03-25T03:21:08.969Z,99216.92
2023-03-25T03:23:57.766Z,99220.11
2023-03-25T03:26:38.739Z,99222.80
2023-03-25T03:29:14.387Z,99225.55
2023-03-25T03:32:07.110Z,99221.92
2023-03-25T03:34:57.995Z,99221.15
2023-03-25T03:37:32.843Z,99218.89
2023-03-25T03:40:06.342Z,99214.61
2023-03-25T03:42:38.066Z,99216.38
2023-03-25T03:45:18.901Z,99215.13
2023-03-25T03:47:51.315Z,99215.88
2023-03-25T03:50:43.081Z,99221.73
2023-03-25T03:53:43.255Z,99228.44
2023-03-25T03:56:22.077Z,99222.80
2023-03-25T03:58:54.468Z,99224.08
2023-03-25T04:01:35.036Z,99233.67
2023-03-25T04:04:07.660Z,99235.06
2023-03-25T04:06:47.710Z,99236.48
2023-03-25T04:09:34.643Z,99240.16
2023-03-25T04:12:11.441Z,99239.58
2023-03-25T04:14:40.309Z,99240.23
2023-03-25T04:17:08.283Z,99242.80
2023-03-25T04:19:36.149Z,99243.64
2023-03-25T04:22:05.675Z,99244.09
2023-03-25T04:24:33.749Z,99247.10
2023-03-25T04:27:05.282Z,99249.63
2023-03-25T04:29:33.894Z,99247.96
2023-03-25T04:32:01.988Z,99249.89
2023-03-25T04:34:29.766Z,99248.73
2023-03-25T04:36:58.563Z,99241.86
2023-03-25T04:39:29.734Z,99246.39
2023-03-25T04:41:57.904Z,99243.92
2023-03-25T04:44:26.136Z,99239.11
2023-03-25T04:46:58.047Z,99238.80
2023-03-25T04:49:25.951Z,99240.67
2023-03-25T04:51:55.696Z,99243.30
2023-03-25T04:54:23.936Z,99245.30
2023-03-25T04:56:52.655Z,99253.80
2023-03-25T04:59:24.287Z,99255.77
2023-03-25T05:01:52.827Z,99253.66
2023-03-25T05:04:21.678Z,99257.38
2023-03-25T05:06:51.270Z,99258.82
2023-03-25T05:09:22.187Z,99260.74
2023-03-25T05:11:52.143Z,99262.19
2023-03-25T05:14:21.955Z,99258.06
2023-03-25T05:16:50.149Z,99257.52
2023-03-25T05:19:21.565Z,99256.39
2023-03-25T05:21:49.411Z,99258.16
2023-03-25T05:24:17.436Z,99261.27
2023-03-25T05:26:45.135Z,99262.02
2023-03-25T05:29:15.057Z,99264.07
2023-03-25T05:31:45.883Z,99272.00
2023-03-25T05:34:14.688Z,99279.05
2023-03-25T05:36:43.749Z,99278.05
2023-03-25T05:39:12.329Z,99274.73
2023-03-25T05:41:40.042Z,99275.16
2023-03-25T05:44:10.333Z,99272.78
2023-03-25T05:46:38.073Z,99277.36
2023-03-25T05:49:05.856Z,99278.84
2023-03-25T05:51:37.516Z,99280.11
2023-03-25T05:54:11.434Z,99278.02
2023-03-25T05:56:40.019Z,99275.21
2023-03-25T05:59:08.333Z,99275.34
2023-03-25T06:01:39.121Z,99275.08
2023-03-25T06:04:10.097Z,99279.43
2023-03-25T06:06:39.526Z,99280.79
2023-03-25T06:09:07.369Z,99279.34
2023-03-25T06:11:38.450Z,99278.41
2023-03-25T06:14:07.097Z,99271.92
2023-03-25T06:16:35.793Z,99275.38
2023-03-25T06:19:04.218Z,99268.45
2023-03-25T06:21:33.997Z,99273.49
2023-03-25T06:38:22.942Z,99286.85
2023-03-25T06:41:06.522Z,99287.70
2023-03-25T06:43:34.141Z,99289.23
2023-03-25T06:46:23.277Z,99288.70
2023-03-25T06:49:11.516Z,99289.38
2023-03-25T06:51:37.998Z,99285.23
2023-03-25T06:54:04.599Z,99284.60
2023-03-25T06:56:31.104Z,99284.92
2023-03-25T06:58:57.636Z,99279.16
2023-03-25T07:01:24.150Z,99274.59
2023-03-25T07:03:50.722Z,99273.60
2023-03-25T07:06:20.287Z,99271.59
2023-03-25T07:08:47.429Z,99271.28
2023-03-25T07:11:15.842Z,99273.27
2023-03-25T07:13:43.150Z,99270.64
2023-03-25T07:16:10.816Z,99272.83
2023-03-25T07:18:41.142Z,99269.82
2023-03-25T07:21:07.545Z,99265.98
2023-03-25T07:23:33.999Z,99263.30
2023-03-25T07:26:00.486Z,99259.62
2023-03-25T07:28:26.900Z,99253.91
2023-03-25T07:30:53.768Z,99257.17
2023-03-25T07:33:20.407Z,99261.96
2023-03-25T07:35:46.791Z,99262.23
2023-03-25T07:38:13.196Z,99261.63
2023-03-25T07:40:39.591Z,99256.35
2023-03-25T07:43:06.170Z,99253.60
2023-03-25T07:45:55.668Z,99272.27
2023-03-25T07:48:22.163Z,99281.44
2023-03-25T07:50:50.984Z,99287.61
2023-03-25T07:53:17.760Z,99281.24
2023-03-25T07:55:44.966Z,99275.89
2023-03-25T07:58:12.210Z,99279.02
2023-03-25T08:00:38.739Z,99278.54
2023-03-25T08:03:05.926Z,99278.30
2023-03-25T08:05:32.365Z,99277.42
2023-03-25T08:08:01.356Z,99273.77
2023-03-25T08:10:27.895Z,99275.17
2023-03-25T08:12:54.396Z,99277.95
2023-03-25T08:15:24.084Z,99273.86
2023-03-25T08:17:53.623Z,99281.38
2023-03-25T08:20:20.469Z,99276.83
2023-03-25T08:22:47.347Z,99278.13
2023-03-25T08:25:13.935Z,99275.23
2023-03-25T08:27:40.496Z,99274.73
2023-03-25T08:30:09.920Z,99271.69
2023-03-25T08:32:37.689Z,99270.13
2023-03-25T08:35:05.183Z,99269.41
2023-03-25T08:37:34.535Z,99267.86
2023-03-25T08:40:06.498Z,99264.62
2023-03-25T08:42:32.846Z,99262.44
2023-03-25T08:44:59.342Z,99259.83
2023-03-25T08:47:25.815Z,99258.52
2023-03-25T08:49:52.207Z,99263.59
2023-03-25T08:52:18.505Z,99259.70
2023-03-25T08:54:44.850Z,99261.99
2023-03-25T08:57:11.566Z,99253.34
2023-03-25T08:59:37.978Z,99250.00
2023-03-25T09:02:05.034Z,99247.77
2023-03-25T09:04:31.722Z,99241.90
2023-03-25T09:07:11.532Z,99247.94
2023-03-25T09:09:40.128Z,99247.84
2023-03-25T09:12:07.448Z,99242.58
2023-03-25T09:14:34.030Z,99239.77
2023-03-25T09:17:00.456Z,99237.32
2023-03-25T09:19:26.855Z,99233.14
2023-03-25T09:21:53.685Z,99233.58
2023-03-25T09:24:22.060Z,99231.02
2023-03-25T09:26:48.450Z,99233.98
2023-03-25T09:29:14.783Z,99232.08
2023-03-25T09:31:41.382Z,99236.65
2023-03-25T09:34:07.757Z,99233.86
2023-03-25T09:36:34.100Z,99232.56
2023-03-25T09:39:00.727Z,99234.58
2023-03-25T09:41:33.050Z,99235.48
2023-03-25T09:44:21.007Z,99235.46
2023-03-25T09:46:48.582Z,99236.69
2023-03-25T09:49:23.083Z,99238.30
2023-03-25T09:51:51.800Z,99245.62
2023-03-25T09:54:38.129Z,99244.62
2023-03-25T09:57:13.099Z,99241.08
2023-03-25T09:59:48.260Z,99241.98
2023-03-25T10:02:45.697Z,99242.67
2023-03-25T10:05:33.939Z,99242.96
2023-03-25T10:08:18.928Z,99239.32
2023-03-25T10:10:52.583Z,99241.75
2023-03-25T10:13:28.937Z,99237.58
2023-03-25T10:16:07.662Z,99235.72
2023-03-25T10:18:57.830Z,99232.38
2023-03-25T10:21:44.367Z,99230.34
2023-03-25T10:24:21.916Z,99224.21
2023-03-25T10:27:06.770Z,99218.57
2023-03-25T10:29:51.435Z,99215.48
2023-03-25T10:32:34.166Z,99214.27
2023-03-25T10:35:03.232Z,99211.47
2023-03-25T10:37:31.828Z,99211.54
2023-03-25T10:40:21.000Z,99212.33
2023-03-25T10:42:56.534Z,99207.04
2023-03-25T10:45:24.425Z,99205.04
2023-03-25T10:47:55.293Z,99200.61
2023-03-25T10:50:22.378Z,99196.66
2023-03-25T10:52:51.152Z,99193.84
2023-03-25T10:55:25.163Z,99193.27
2023-03-25T10:57:52.299Z,99189.48
2023-03-25T11:00:19.794Z,99185.13
2023-03-25T11:02:47.135Z,99183.79
2023-03-25T11:05:18.943Z,99179.23
2023-03-25T11:07:50.733Z,99178.30
2023-03-25T11:10:31.679Z,99168.65
2023-03-25T11:13:03.136Z,99157.75
2023-03-25T11:15:40.629Z,99149.27
2023-03-25T11:18:38.502Z,99151.38
2023-03-25T11:21:10.391Z,99149.04
2023-03-25T11:23:43.424Z,99144.89
2023-03-25T11:26:23.519Z,99140.27
2023-03-25T11:28:56.007Z,99140.46
2023-03-25T11:31:29.119Z,99141.11
2023-03-25T11:34:21.617Z,99134.58
2023-03-25T11:36:58.276Z,99133.81
2023-03-25T11:39:39.026Z,99141.16
2023-03-25T11:42:22.414Z,99146.42
2023-03-25T11:44:53.850Z,99148.39
2023-03-25T11:47:44.654Z,99147.67
2023-03-25T11:50:20.822Z,99148.13
2023-03-25T11:52:49.689Z,99148.37
2023-03-25T11:55:20.953Z,99145.38
2023-03-25T11:57:49.731Z,99146.70
2023-03-25T12:00:31.235Z,99141.52
2023-03-25T12:03:19.582Z,99133.55
2023-03-25T12:06:06.161Z,99130.39
2023-03-25T12:08:51.105Z,99125.48
2023-03-25T12:11:27.547Z,99127.39
2023-03-25T12:14:15.229Z,99127.55
2023-03-25T12:16:53.258Z,99124.59
2023-03-25T12:19:41.913Z,99127.71
2023-03-25T12:22:21.975Z,99124.48
2023-03-25T12:25:11.984Z,99126.15
2023-03-25T12:27:56.649Z,99122.20
2023-03-25T12:30:51.275Z,99121.27
2023-03-25T12:33:39.196Z,99119.54
2023-03-25T12:36:08.595Z,99118.28
2023-03-25T12:38:54.038Z,99111.85
2023-03-25T12:41:54.197Z,99106.48
2023-03-25T12:44:32.481Z,99103.91
2023-03-25T12:47:13.663Z,99101.33
2023-03-25T12:49:45.506Z,99098.31
2023-03-25T12:52:20.810Z,99096.40
2023-03-25T12:54:55.035Z,99091.88
2023-03-25T12:57:34.691Z,99089.78
2023-03-25T13:00:38.055Z,99089.23
2023-03-25T13:03:27.426Z,99094.94
2023-03-25T13:06:00.206Z,99097.02
2023-03-25T13:08:43.733Z,99102.97
2023-03-25T13:11:35.926Z,99102.17
2023-03-25T13:14:10.906Z,99105.58
2023-03-25T13:16:39.734Z,99110.73
2023-03-25T13:19:12.873Z,99111.38
2023-03-25T13:21:43.151Z,99116.36
2023-03-25T13:24:14.305Z,99116.23
2023-03-25T13:26:45.031Z,99116.04
2023-03-25T13:29:24.629Z,99112.92
2023-03-25T13:31:53.390Z,99103.55
2023-03-25T13:34:44.038Z,99092.19
2023-03-25T13:37:24.022Z,99084.39
2023-03-25T13:40:00.353Z,99084.21
2023-03-25T13:42:51.596Z,99082.16
2023-03-25T13:45:20.385Z,99072.45
2023-03-25T13:48:13.468Z,99066.58
2023-03-25T13:50:40.362Z,99064.81
2023-03-25T13:53:51.774Z,99064.63
2023-03-25T13:56:29.226Z,99065.65
2023-03-25T13:59:26.857Z,99068.06
2023-03-25T14:02:20.897Z,99067.88
2023-03-25T14:04:47.283Z,99065.36
2023-03-25T14:07:16.409Z,99067.21
2023-03-25T14:10:20.417Z,99072.44
2023-03-25T14:12:52.252Z,99076.06
2023-03-25T14:15:27.076Z,99073.98
2023-03-25T14:17:55.458Z,99070.67
2023-03-25T14:20:39.706Z,99071.79
2023-03-25T14:23:16.493Z,99070.21
2023-03-25T14:25:47.424Z,99069.92
2023-03-25T14:28:20.687Z,99069.84
2023-03-25T14:31:23.952Z,99073.98
2023-03-25T14:33:59.480Z,99081.61
2023-03-25T14:36:41.132Z,99076.98
2023-03-25T14:39:29.401Z,99081.84
2023-03-25T14:41:57.428Z,99082.52
2023-03-25T14:44:28.234Z,99093.20
2023-03-25T14:47:20.017Z,99134.96
2023-03-25T14:49:49.675Z,99149.20
2023-03-25T14:52:20.056Z,99146.95
2023-03-25T14:54:52.350Z,99147.88
2023-03-25T14:57:24.469Z,99154.07
2023-03-25T14:59:57.890Z,99162.66
2023-03-25T15:02:27.315Z,99163.38
2023-03-25T15:05:02.783Z,99162.77
2023-03-25T15:07:43.800Z,99162.19
2023-03-25T15:10:31.131Z,99173.54
2023-03-25T15:13:26.890Z,99181.32
2023-03-25T15:16:00.153Z,99179.70
2023-03-25T15:18:36.126Z,99179.05
2023-03-25T15:24:16.084Z,99174.56
2023-03-25T15:26:45.628Z,99159.05
2023-03-25T15:29:28.440Z,99142.31
2023-03-25T15:32:33.984Z,99135.83
2023-03-25T15:35:52.825Z,99139.63
2023-03-25T15:38:32.956Z,99135.56
2023-03-25T15:41:30.855Z,99125.48
2023-03-25T15:44:21.493Z,99119.30
2023-03-25T15:46:58.101Z,99112.79
2023-03-25T15:49:53.436Z,99114.79
2023-03-25T15:52:57.108Z,99117.30
2023-03-25T15:55:31.454Z,99116.40
2023-03-25T15:58:05.509Z,99116.73
2023-03-25T16:00:41.540Z,99114.44
2023-03-25T16:03:18.783Z,99113.92
2023-03-25T16:05:56.436Z,99115.36
2023-03-25T16:08:43.124Z,99114.40
2023-03-25T16:11:41.812Z,99121.62
2023-03-25T16:14:14.203Z,99127.66
2023-03-25T16:16:47.821Z,99133.11
2023-03-25T16:19:20.306Z,99131.83
2023-03-25T16:21:50.437Z,99133.70
2023-03-25T16:24:23.818Z,99128.63
2023-03-25T16:26:52.775Z,99127.70
2023-03-25T16:29:25.757Z,99134.73
2023-03-25T16:31:54.964Z,99134.86
2023-03-25T16:34:23.350Z,99132.15
2023-03-25T16:36:52.665Z,99129.54
2023-03-25T16:39:22.516Z,99131.22
2023-03-25T16:41:53.398Z,99134.68
2023-03-25T16:44:23.738Z,99131.31
2023-03-25T16:46:53.385Z,99135.39
2023-03-25T16:49:32.408Z,99136.77
2023-03-25T16:52:11.762Z,99137.58
2023-03-25T16:55:02.326Z,99139.56
2023-03-25T16:57:35.470Z,99145.09
2023-03-25T17:00:18.490Z,99145.55
2023-03-25T17:02:49.907Z,99149.58
2023-03-25T17:05:22.340Z,99150.10
2023-03-25T17:08:04.976Z,99158.73
2023-03-25T17:10:47.633Z,99162.58
2023-03-25T17:13:31.744Z,99171.92
2023-03-25T17:15:59.751Z,99167.57
2023-03-25T17:18:31.482Z,99167.65
2023-03-25T17:21:01.488Z,99166.52
2023-03-25T17:23:37.623Z,99171.07
2023-03-25T17:26:08.176Z,99169.29
2023-03-25T17:28:41.392Z,99172.94
2023-03-25T17:31:39.282Z,99173.09
2023-03-25T17:34:08.762Z,99166.68
2023-03-25T17:36:40.557Z,99165.86
2023-03-25T17:39:22.163Z,99169.28
2023-03-25T17:42:03.684Z,99169.35
2023-03-25T17:44:42.918Z,99167.45
2023-03-25T17:47:18.818Z,99159.04
2023-03-25T17:49:47.652Z,99163.64
2023-03-25T17:52:15.353Z,99169.45
2023-03-25T17:54:43.069Z,99169.70
2023-03-25T17:57:17.611Z,99171.40
2023-03-25T17:59:45.771Z,99166.61
2023-03-25T18:02:18.988Z,99177.30
2023-03-25T18:04:48.057Z,99177.45
2023-03-25T18:07:21.715Z,99173.92
2023-03-25T18:09:54.497Z,99172.66
2023-03-25T18:12:23.168Z,99178.95
2023-03-25T18:14:54.009Z,99174.25
2023-03-25T18:17:23.044Z,99178.77
2023-03-25T18:19:51.775Z,99177.37
2023-03-25T18:22:20.400Z,99180.74
2023-03-25T18:24:50.921Z,99181.92
2023-03-25T18:27:21.127Z,99183.80
2023-03-25T18:29:54.168Z,99184.65
2023-03-25T18:32:21.917Z,99191.48
2023-03-25T18:34:49.669Z,99190.66
2023-03-25T18:37:18.041Z,99196.03
2023-03-25T18:39:48.194Z,99193.31
2023-03-25T18:42:16.784Z,99197.42
2023-03-25T18:44:45.950Z,99196.19
2023-03-25T18:47:14.721Z,99206.97
2023-03-25T18:49:42.902Z,99211.80
2023-03-25T18:52:11.158Z,99220.94
2023-03-25T18:54:39.453Z,99237.48
2023-03-25T18:57:08.963Z,99225.17
2023-03-25T18:59:37.161Z,99216.88
2023-03-25T19:02:05.492Z,99215.61
2023-03-25T19:04:35.556Z,99212.57
2023-03-25T19:07:04.911Z,99208.51
2023-03-25T19:09:33.243Z,99207.45
2023-03-25T19:12:01.815Z,99204.04
2023-03-25T19:14:30.363Z,99202.54
2023-03-25T19:17:03.944Z,99202.04
2023-03-25T19:19:32.896Z,99199.36
2023-03-25T19:22:00.911Z,99196.88
2023-03-25T19:24:28.909Z,99196.95
2023-03-25T19:26:57.638Z,99198.55
2023-03-25T19:29:26.964Z,99199.02
2023-03-25T19:31:55.585Z,99197.32
2023-03-25T19:34:23.309Z,99195.02
2023-03-25T19:36:53.284Z,99193.87
2023-03-25T19:39:22.800Z,99189.34
2023-03-25T19:41:52.686Z,99191.16
2023-03-25T19:44:21.124Z,99190.34
2023-03-25T19:46:51.246Z,99185.50
2023-03-25T19:49:32.578Z,99185.83
2023-03-25T19:52:07.967Z,99182.96
2023-03-25T19:54:38.112Z,99178.48
2023-03-25T19:57:10.350Z,99180.46
2023-03-25T19:59:44.831Z,99181.34
2023-03-25T20:02:15.990Z,99178.33
2023-03-25T20:04:45.168Z,99174.14
2023-03-25T20:07:13.315Z,99171.73
2023-03-25T20:09:46.571Z,99170.70
2023-03-25T20:12:15.454Z,99169.27
2023-03-25T20:14:47.895Z,99166.16
2023-03-25T20:17:16.801Z,99168.05
2023-03-25T20:19:44.486Z,99172.32
2023-03-25T20:35:59.579Z,99163.39
2023-03-25T20:38:27.984Z,99171.23
2023-03-25T20:40:57.566Z,99174.48
2023-03-25T20:43:27.261Z,99169.42
2023-03-25T20:45:57.200Z,99169.14
2023-03-25T20:48:27.603Z,99167.23
2023-03-25T20:51:00.718Z,99164.19
2023-03-25T20:53:31.051Z,99164.17
2023-03-25T20:56:01.017Z,99161.36
2023-03-25T20:58:29.886Z,99166.50
2023-03-25T21:01:00.626Z,99166.63
2023-03-25T21:03:29.234Z,99167.51
2023-03-25T21:06:07.436Z,99168.08
2023-03-25T21:08:44.279Z,99167.07
2023-03-25T21:11:17.044Z,99167.15
2023-03-25T21:13:48.263Z,99165.00
2023-03-25T21:16:18.280Z,99165.32
2023-03-25T21:18:49.346Z,99170.48
2023-03-25T21:21:19.744Z,99167.94
2023-03-25T21:23:50.267Z,99166.30
2023-03-25T21:26:18.756Z,99162.47
2023-03-25T21:28:48.921Z,99160.98
2023-03-25T21:31:21.856Z,99161.21
2023-03-25T21:33:56.272Z,99158.56
2023-03-25T21:36:34.397Z,99157.05
2023-03-25T21:39:06.730Z,99157.31
2023-03-25T21:41:37.131Z,99157.20
2023-03-25T21:44:06.762Z,99154.86
2023-03-25T21:46:37.825Z,99151.08
2023-03-25T21:49:07.135Z,99155.98
2023-03-25T21:51:42.708Z,99152.19
2023-03-25T21:54:14.800Z,99150.44
2023-03-25T21:56:43.609Z,99152.33
2023-03-25T21:59:12.019Z,99153.52
2023-03-25T22:01:42.455Z,99155.75
2023-03-25T22:04:11.257Z,99157.49
2023-03-25T22:06:39.714Z,99158.23
2023-03-25T22:09:12.930Z,99157.36
2023-03-25T22:11:43.558Z,99155.47
2023-03-25T22:14:11.518Z,99156.07
2023-03-25T22:16:39.274Z,99156.16
2023-03-25T22:19:07.083Z,99160.91
2023-03-25T22:21:37.491Z,99162.91
2023-03-25T22:24:07.467Z,99155.31
2023-03-25T22:26:38.525Z,99153.14
2023-03-25T22:29:08.137Z,99150.82
2023-03-25T22:31:40.578Z,99151.79
2023-03-25T22:34:12.896Z,99152.23
2023-03-25T22:36:43.309Z,99153.56
2023-03-25T22:39:12.718Z,99155.48
2023-03-25T22:41:40.612Z,99158.09
2023-03-25T22:44:08.319Z,99161.30
2023-03-25T22:46:36.335Z,99163.37
2023-03-25T22:49:04.576Z,99159.73
2023-03-25T22:51:32.330Z,99160.48
2023-03-25T22:54:00.527Z,99158.39
2023-03-25T22:56:33.920Z,99155.67
2023-03-25T22:59:03.972Z,99160.65
2023-03-25T23:01:33.038Z,99156.88
2023-03-25T23:04:00.913Z,99162.38
2023-03-25T23:06:29.925Z,99161.45
2023-03-25T23:08:58.404Z,99159.45
2023-03-25T23:11:28.550Z,99161.36
2023-03-25T23:14:07.370Z,99158.52
2023-03-25T23:16:35.605Z,99159.77
2023-03-25T23:19:05.645Z,99161.35
2023-03-25T23:21:34.075Z,99161.98
2023-03-25T23:24:03.971Z,99158.96
2023-03-25T23:26:35.680Z,99160.41
2023-03-25T23:29:05.301Z,99164.74
2023-03-25T23:31:35.473Z,99163.39
2023-03-25T23:34:05.939Z,99159.15
2023-03-25T23:36:36.408Z,99157.80
2023-03-25T23:39:07.273Z,99160.66
2023-03-25T23:41:35.722Z,99160.44
2023-03-25T23:44:04.508Z,99156.93
2023-03-25T23:46:33.334Z,99162.15
2023-03-25T23:49:03.998Z,99164.48
2023-03-25T23:51:37.809Z,99163.79
2023-03-25T23:54:08.488Z,99166.97
2023-03-25T23:56:37.423Z,99165.47
2023-03-25T23:59:06.524Z,99163.52
